Accueil
METAR-TAF:

METAR-TAF

Aéroports :

Aéroport de Bergerac-Dordogne-Périgord

Bergerac, France

latitude: 44-49N, longitude: 000-31E, altitude: 51 m

Observation

Le bulletin a été fait il y a 19 minutes, à 18:00 UTC
Vent 4 kt de nord-ouest
Température 9°C
Humidité 87%
Pression 1017 hPa
Visibilité 10 km ou plus
pas de nuages en-dessous de 1500 mètres et pas de cumulonimbus.

METAR: LFBE 081800Z AUTO 31004KT CAVOK 09/07 Q1017 NOSIG

Heure: 19:19 (18:19 UTC)

Prévision

Le bulletin a été fait il y a 1 heure et 19 minutes, à 17:00 UTC
Prévision valable du 08 à 18 UTC au 09 à 18 UTC
Vent 8 kt de nord
Visibilité 10 km ou plus
pas de nuages en-dessous de 1500 mètres et pas de cumulonimbus.

TAF: LFBE 081700Z 0818/0918 35008KT CAVOK

Observations et prévisions météorologiques de plus de 4000 aéroports (messages METAR et TAF).

Les stations disponibles sont représentées par des disques jaunes et rouges sur la carte.

Passer la souris dessus pour voir le nom de la station.

Cliquer dessus pour voir les observations et prévisions météorologiques.

Pour changer de carte: cliquez sur les boutons verts avec une croix noire pour zoomer, sur le bouton vert avec un tiret pour effectuer un zoom arrière, ou sur les flèches vertes pour les cartes adjacentes.


METAR-TAF: